Esterel, Canada
Current Conditions -  °F | °C
As of 6:00 PM on Tuesday 27 Jan 2015 (Local Time) from CYMX Reporting Station
Broken Clouds Broken Clouds  
Wind Chill:   Ceiling: 19000
Heat Index: 14°   Visibility: 25mi
Dew Point: -6°   Wind: 8mph
Humidity: 41%   Direction: 360°N
Pressure: 30.02"   Gusts: NA
Location:  46.03°N, 74.03°W
Report Text: CYMX 272300Z 36007KT 25SM FEW160 BKN190 M10/M21 A3002 RMK AC2AC4 SLP174
Loading
Personal Weather Stations






























Interactive Weather Map New forecast layout! Learn more

10-Day Weather Forecast

Advertisements
Track Severe Weather on mobile